METAR Data
IDs: Format: Raw Decoded Include TAF

Data at: 1853 UTC 14 Dec 2018

KDAL 141753Z 34012KT 9SM -RA OVC014 07/06 A2998 RMK AO2 PK WND 33026/1737 RAE44B53 SLP151 P0001 60003 T00720056 10078 20067 50006
KDAL 141747Z 32015G22KT 9SM OVC014 07/06 A2998 RMK AO2 PK WND 33026/1737 RAE44 P0001
KDAL 141653Z 34012KT 9SM -RA OVC015 07/05 A3000 RMK AO2 SLP157 P0002 T00720050
KDAL 141637Z 34017G24KT 10SM -RA OVC015 07/05 A2999 RMK AO2 P0001 T00720050
KDAL 141608Z 33015G22KT 9SM -RA OVC014 07/05 A2999 RMK AO2 P0001 T00670050
KDAL 141553Z 34013KT 5SM -RA BR OVC015 07/05 A2998 RMK AO2 PK WND 36026/1517 RAB33 SLP153 P0000 T00670050
KDAL 141453Z 35014G25KT 10SM OVC015 07/04 A2996 RMK AO2 DZE30 SLP145 P0000 60000 T00720044 51026
KDAL 141430Z 35013G23KT 10SM OVC015 07/04 A2995 RMK AO2 DZE30 P0000 T00720044
KDAL 141353Z 34017G26KT 5SM -DZ BR FEW008 OVC013 07/05 A2993 RMK AO2 PK WND 34026/1335 SLP135 P0000 T00670050
KDAL 141302Z 33015G21KT 6SM -DZ BR SCT008 OVC013 07/06 A2991 RMK AO2 P0000 T00670056
KDAL 141253Z 33010G19KT 6SM -DZ BR BKN013 OVC018 07/06 A2991 RMK AO2 SLP129 P0000 T00670056
KDAL 141153Z 34015G21KT 6SM -DZ BR SCT007 OVC013 07/06 A2988 RMK AO2 SLP118 P0000 60000 70010 T00720056 10083 20072 53016 $
KDAL 141146Z 34011KT 6SM -DZ BR SCT007 OVC013 07/06 A2988 RMK AO2 P0000 T00720056 $
KDAL 141122Z 34014G22KT 6SM -DZ BR BKN011 OVC016 07/06 A2987 RMK AO2 P0000 T00720056 $
KDAL 141112Z 34016G24KT 6SM -DZ BR BKN009 OVC015 07/06 A2987 RMK AO2 P0000 T00720056 $
KDAL 141053Z 34011G23KT 8SM -DZ OVC011 08/06 A2987 RMK AO2 PK WND 35026/1018 DZB50 SLP111 P0000 T00780061 $
KDAL 140953Z 33013KT 10SM OVC011 08/06 A2984 RMK AO2 SLP104 T00780061 $
KDAL 140853Z 35013KT 10SM OVC010 08/06 A2983 RMK AO2 SLP100 T00780061 53009 $
KDAL 140753Z 35014KT 10SM OVC010 08/06 A2982 RMK AO2 SLP094 T00780056 $
KDAL 140653Z 35010KT 10SM OVC011 08/06 A2982 RMK AO2 SLP094 T00780061 $
KDAL 140553Z 36014G20KT 10SM OVC012 08/07 A2981 RMK AO2 SLP090 T00830067 10094 20083 401830083 51010 $
KDAL 140453Z 36008KT 10SM OVC011 08/07 A2980 RMK AO2 SLP089 T00830067 $
KDAL 140353Z 35009KT 10SM OVC010 09/07 A2978 RMK AO2 SLP082 T00890067 $
KDAL 140253Z 36010KT 10SM OVC010 09/07 A2978 RMK AO2 SLP080 T00890067 53009
KDAL 140153Z 34008KT 10SM OVC011 08/06 A2977 RMK AO2 SLP078 T00830061
KDAL 140053Z 35013G24KT 10SM OVC012 09/06 A2975 RMK AO2 WSHFT 0020 SLP072 T00890061
KDAL 140040Z 36018G25KT 10SM OVC012 09/06 A2973 RMK AO2 WSHFT 0020 PRESFR T00890061
KDAL 132353Z 31011KT 10SM OVC011 09/07 A2975 RMK AO2 SLP071 60005 T00940072 10183 20094 51042
KDAL 132253Z 32013G22KT 10SM OVC012 10/08 A2971 RMK AO2 SLP058 T01000078
KDAL 132217Z 33014KT 10SM BKN010 OVC017 11/09 A2969 RMK AO2 OCNL LTGIC CB DSNT NE MOV N T01110089
KDAL 132153Z COR 34013KT 10SM SCT010 BKN017 OVC028 12/10 A2968 RMK AO2 WSHFT 2114 FROPA SLP046 OCNL LTGIC CB DSNT NE MOV N T01170100
KDAL 132134Z 34015G23KT 10SM SCT010 BKN017 OVC028 13/11 A2966 RMK AO2 WSHFT 2114 PRESRR OCNL LTGIC CB DSNT NE MOV N T01280111
KDAL 132053Z 27008KT 10SM FEW012 BKN029 OVC037 18/12 A2962 RMK AO2 TSE43 SLP026 OCNL LTGIC DSNT N-E TS MOVD N CB DSNT N-E MOV N 60005 T01780122 55013
KDAL 132043Z 27006KT 10SM FEW012 BKN029 OVC060 18/13 A2962 RMK AO2 TSE43 OCNL LTGIC DSNT N-E TS MOVD N CB DSNT N-E MOV N T01780128
KDAL 131953Z 16006KT 10SM TS SCT012CB BKN026 OVC060 18/16 A2961 RMK AO2 RAE36 TSE17B29 SLP024 OCNL LTGICCG NE-SE AND DSNT N TS NE-SE AND CB DSNT N MOV N P0003 T01780156
KDAL 131929Z 15006KT 10SM -TSRA FEW012CB BKN022 OVC060 18/16 A2962 RMK AO2 TSE17B29 OCNL LTGICCG E AND DSNT N TS E AND CB DSNT N MOV N P0003 T01780156
KDAL 131920Z COR 18006KT 8SM -RA FEW012 BKN017 OVC060 18/16 A2962 RMK AO2 TSE17 MOVD N OCNL LTGICCG DSNT NW-N CB DSNT NW-N MOV N P0003 T01780156
KDAL 131853Z COR 15007KT 8SM TSRA SCT015CB BKN023 OVC065 18/16 A2963 RMK AO2 RAE31B43 TSB48 SLP028 OCNL LTGICCG NW TS NW MOV NE P0002 T01780161
KDAL 131848Z COR 18006KT 8SM -TSRA SCT015CB BKN023 OVC065 18/16 A2963 RMK AO2 RAE31B43 TSB48 OCNL LTGICCG NW TS NW MOV NE P0001
KDAL 131838Z 15006KT 10SM SCT015 BKN023 OVC065 18/16 A2964 RMK AO2 RAE31 P0001 T01830161
KDAL 131824Z 13009KT 9SM -RA BKN013 BKN020 OVC060 18/16 A2964 RMK AO2 P0001 T01830161
KDAL 131803Z 12005KT 9SM -RA SCT013 BKN025 OVC060 18/16 A2965 RMK AO2 P0001 T01830161
KDAL 131753Z 14009KT 8SM -RA SCT009 BKN040 OVC060 18/16 A2966 RMK AO2 RAB35 SLP040 P0002 60005 T01780161 10183 20161 58014
KDAL 131742Z 17006KT 8SM RA FEW009 BKN045 OVC060 18/16 A2967 RMK AO2 RAB35 P0001 T01780161
KDAL 131739Z 15008KT 6SM -RA BR SCT011 BKN019 BKN070 18/16 A2967 RMK AO2 RAB35 P0000 T01780161
KDAL 131727Z 16008KT 10SM SCT014 SCT029 BKN042 18/16 A2967 RMK AO2 T01830161
KDAL 131708Z 15009KT 10SM SCT009 BKN012 BKN018 18/16 A2968 RMK AO2 T01830161
KDAL 131653Z 16011KT 10SM SCT009 BKN016 OVC030 18/17 A2969 RMK AO2 SLP048 BINOVC OHD T01830167
KDAL 131639Z 16009KT 9SM SCT008 BKN016 OVC030 18/16 A2969 RMK AO2 T01780161
KDAL 131623Z 16006KT 9SM FEW007 BKN011 OVC020 17/16 A2970 RMK AO2 T01720156
KDAL 131553Z 15005KT 6SM BR BKN007 OVC011 17/16 A2970 RMK AO2 RAE31 SLP053 P0001 T01670161
KDAL 131515Z 14010KT 6SM -RA BR BKN008 BKN050 OVC250 16/16 A2970 RMK AO2 P0000 T01610156
KDAL 131453Z 15012KT 5SM -RA BR SCT008 BKN015 BKN090 OVC250 17/16 A2970 RMK AO2 SLP054 P0002 60002 T01670156 53010
KDAL 131448Z 15009KT 6SM -RA BR SCT008 BKN015 BKN080 OVC250 17/16 A2970 RMK AO2 P0001 $
KDAL 131353Z 15012KT 6SM -RA BR BKN009 BKN015 OVC100 17/16 A2970 RMK AO2 RAB1258E16B46 SLP054 OCNL LTGIC DSNT N-NE W CB DSNT N-NE W MOV NE P0000 T01670156 $
KDAL 131301Z COR 16013KT 8SM -RA BKN008 BKN012 BKN110 17/16 A2968 RMK AO2 OCNL LTGIC DSNT NW CB DSNT NW MOV NE RAB1258 P0000 T01670161 $
KDAL 131253Z 15013KT 10SM SCT008 BKN015 BKN110 17/16 A2967 RMK AO2 SLP044 T01670156 $
KDAL 131153Z 16009KT 9SM FEW012 BKN017 BKN110 17/16 A2967 RMK AO2 SLP044 60002 70002 T01670156 10172 20167 56008 $
KDAL 131148Z 16009KT 9SM FEW012 BKN017 BKN110 17/16 A2967 RMK AO2 $
KDAL 131138Z COR 16007KT 10SM SCT010 SCT017 BKN100 17/16 A2967 RMK AO2 T01670156 $
KDAL 131053Z 18008KT 10SM BKN011 OVC019 17/16 A2967 RMK AO2 SLP042 T01720161 $
KDAL 131037Z 18009KT 10SM OVC011 17/16 A2967 RMK AO2 T01720161 $
KDAL 130953Z 18007KT 8SM OVC008 17/16 A2970 RMK AO2 RAB20E37 SLP052 P0000 T01670161 $
KDAL 130913Z 17010KT 8SM OVC009 17/16 A2972 RMK AO2 OCNL LTGIC DSNT E CB DSNT E MOV NE T01720161 $
KDAL 130853Z 17012KT 8SM OVC011 17/16 A2974 RMK AO2 RAE36 SLP064 P0001 60002 T01720156 58010 $
KDAL 130753Z 15004KT 10SM -RA OVC014 17/16 A2976 RMK AO2 RAB0656 SLP073 P0001 T01670156 $